sensor_id;sensor_type;location;lat;lon;timestamp;P1;durP1;ratioP1;P2;durP2;ratioP2
80584;SDS011;70137;56.482;9.154;2023-06-26T00:00:43;7.35;;;4.57;;
80584;SDS011;70137;56.482;9.154;2023-06-26T00:03:08;5.72;;;4.30;;
80584;SDS011;70137;56.482;9.154;2023-06-26T00:05:33;5.47;;;4.60;;
80584;SDS011;70137;56.482;9.154;2023-06-26T00:07:59;7.78;;;4.28;;
80584;SDS011;70137;56.482;9.154;2023-06-26T00:10:25;6.57;;;4.78;;
80584;SDS011;70137;56.482;9.154;2023-06-26T00:12:54;5.57;;;4.60;;
80584;SDS011;70137;56.482;9.154;2023-06-26T00:15:19;5.65;;;4.68;;
80584;SDS011;70137;56.482;9.154;2023-06-26T00:17:45;8.40;;;5.47;;
80584;SDS011;70137;56.482;9.154;2023-06-26T00:20:10;6.03;;;4.60;;
80584;SDS011;70137;56.482;9.154;2023-06-26T00:22:36;5.35;;;4.43;;
80584;SDS011;70137;56.482;9.154;2023-06-26T00:25:01;6.47;;;4.40;;
80584;SDS011;70137;56.482;9.154;2023-06-26T00:27:28;6.80;;;5.03;;
80584;SDS011;70137;56.482;9.154;2023-06-26T00:29:54;5.55;;;4.25;;
80584;SDS011;70137;56.482;9.154;2023-06-26T00:32:19;5.82;;;4.72;;
80584;SDS011;70137;56.482;9.154;2023-06-26T00:34:44;8.05;;;5.15;;
80584;SDS011;70137;56.482;9.154;2023-06-26T00:37:11;4.82;;;4.32;;
80584;SDS011;70137;56.482;9.154;2023-06-26T00:39:37;7.18;;;4.72;;
80584;SDS011;70137;56.482;9.154;2023-06-26T00:42:02;5.38;;;4.13;;
80584;SDS011;70137;56.482;9.154;2023-06-26T00:44:27;6.63;;;4.60;;
80584;SDS011;70137;56.482;9.154;2023-06-26T00:46:53;7.22;;;4.72;;
80584;SDS011;70137;56.482;9.154;2023-06-26T00:49:18;6.30;;;4.45;;
80584;SDS011;70137;56.482;9.154;2023-06-26T00:51:44;6.10;;;5.13;;
80584;SDS011;70137;56.482;9.154;2023-06-26T00:54:09;7.95;;;5.07;;
80584;SDS011;70137;56.482;9.154;2023-06-26T00:56:35;9.15;;;5.10;;
80584;SDS011;70137;56.482;9.154;2023-06-26T00:59:02;5.80;;;4.88;;
80584;SDS011;70137;56.482;9.154;2023-06-26T01:01:27;6.80;;;5.43;;
80584;SDS011;70137;56.482;9.154;2023-06-26T01:03:53;6.88;;;5.47;;
80584;SDS011;70137;56.482;9.154;2023-06-26T01:06:20;7.43;;;5.55;;
80584;SDS011;70137;56.482;9.154;2023-06-26T01:08:47;9.23;;;5.57;;
80584;SDS011;70137;56.482;9.154;2023-06-26T01:11:13;8.10;;;5.88;;
80584;SDS011;70137;56.482;9.154;2023-06-26T01:13:39;9.88;;;6.65;;
80584;SDS011;70137;56.482;9.154;2023-06-26T01:16:06;6.97;;;6.05;;
80584;SDS011;70137;56.482;9.154;2023-06-26T01:18:32;8.20;;;6.65;;
80584;SDS011;70137;56.482;9.154;2023-06-26T01:20:59;9.10;;;6.55;;
80584;SDS011;70137;56.482;9.154;2023-06-26T01:26:22;11.30;;;7.10;;
80584;SDS011;70137;56.482;9.154;2023-06-26T01:28:49;12.63;;;8.10;;
80584;SDS011;70137;56.482;9.154;2023-06-26T01:31:16;10.60;;;7.32;;
80584;SDS011;70137;56.482;9.154;2023-06-26T01:33:42;9.68;;;7.68;;
80584;SDS011;70137;56.482;9.154;2023-06-26T01:36:08;10.80;;;7.68;;
80584;SDS011;70137;56.482;9.154;2023-06-26T01:38:34;12.93;;;7.80;;
80584;SDS011;70137;56.482;9.154;2023-06-26T01:40:59;9.60;;;7.38;;
80584;SDS011;70137;56.482;9.154;2023-06-26T01:43:34;7.80;;;6.05;;
80584;SDS011;70137;56.482;9.154;2023-06-26T01:46:04;9.60;;;7.00;;
80584;SDS011;70137;56.482;9.154;2023-06-26T01:48:36;9.75;;;7.95;;
80584;SDS011;70137;56.482;9.154;2023-06-26T01:51:07;11.55;;;7.18;;
80584;SDS011;70137;56.482;9.154;2023-06-26T01:53:36;9.77;;;7.03;;
80584;SDS011;70137;56.482;9.154;2023-06-26T01:56:07;10.35;;;7.18;;
80584;SDS011;70137;56.482;9.154;2023-06-26T01:58:38;8.23;;;6.45;;
80584;SDS011;70137;56.482;9.154;2023-06-26T02:01:08;11.68;;;8.13;;
80584;SDS011;70137;56.482;9.154;2023-06-26T02:03:33;9.52;;;6.82;;
80584;SDS011;70137;56.482;9.154;2023-06-26T02:05:59;11.88;;;7.38;;
80584;SDS011;70137;56.482;9.154;2023-06-26T02:08:24;12.20;;;7.57;;
80584;SDS011;70137;56.482;9.154;2023-06-26T02:10:49;12.90;;;8.20;;
80584;SDS011;70137;56.482;9.154;2023-06-26T02:13:15;11.68;;;8.57;;
80584;SDS011;70137;56.482;9.154;2023-06-26T02:15:40;13.20;;;8.50;;
80584;SDS011;70137;56.482;9.154;2023-06-26T02:18:05;14.73;;;8.65;;
80584;SDS011;70137;56.482;9.154;2023-06-26T02:20:31;10.73;;;7.13;;
80584;SDS011;70137;56.482;9.154;2023-06-26T02:22:58;11.23;;;7.70;;
80584;SDS011;70137;56.482;9.154;2023-06-26T02:25:23;12.57;;;8.30;;
80584;SDS011;70137;56.482;9.154;2023-06-26T02:27:48;14.77;;;8.52;;
80584;SDS011;70137;56.482;9.154;2023-06-26T02:30:14;10.77;;;7.88;;
80584;SDS011;70137;56.482;9.154;2023-06-26T02:32:39;11.75;;;8.68;;
80584;SDS011;70137;56.482;9.154;2023-06-26T02:35:05;10.80;;;8.02;;
80584;SDS011;70137;56.482;9.154;2023-06-26T02:37:30;11.73;;;8.52;;
80584;SDS011;70137;56.482;9.154;2023-06-26T02:39:56;10.63;;;8.38;;
80584;SDS011;70137;56.482;9.154;2023-06-26T02:42:21;15.18;;;8.65;;
80584;SDS011;70137;56.482;9.154;2023-06-26T02:44:46;13.32;;;9.48;;
80584;SDS011;70137;56.482;9.154;2023-06-26T02:47:12;14.93;;;11.20;;
80584;SDS011;70137;56.482;9.154;2023-06-26T02:49:37;16.35;;;11.23;;
80584;SDS011;70137;56.482;9.154;2023-06-26T02:52:02;16.27;;;10.55;;
80584;SDS011;70137;56.482;9.154;2023-06-26T02:54:28;16.48;;;9.82;;
80584;SDS011;70137;56.482;9.154;2023-06-26T02:56:53;11.52;;;8.77;;
80584;SDS011;70137;56.482;9.154;2023-06-26T02:59:18;14.30;;;10.35;;
80584;SDS011;70137;56.482;9.154;2023-06-26T03:01:44;14.02;;;10.55;;
80584;SDS011;70137;56.482;9.154;2023-06-26T03:04:09;11.93;;;8.45;;
80584;SDS011;70137;56.482;9.154;2023-06-26T03:06:35;13.43;;;9.77;;
80584;SDS011;70137;56.482;9.154;2023-06-26T03:09:01;16.13;;;10.18;;
80584;SDS011;70137;56.482;9.154;2023-06-26T03:11:28;16.95;;;10.57;;
80584;SDS011;70137;56.482;9.154;2023-06-26T03:13:53;18.80;;;10.80;;
80584;SDS011;70137;56.482;9.154;2023-06-26T03:16:19;12.70;;;9.73;;
80584;SDS011;70137;56.482;9.154;2023-06-26T03:18:44;14.73;;;10.07;;
80584;SDS011;70137;56.482;9.154;2023-06-26T03:21:10;14.27;;;10.07;;
80584;SDS011;70137;56.482;9.154;2023-06-26T03:23:35;13.63;;;9.80;;
80584;SDS011;70137;56.482;9.154;2023-06-26T03:26:00;15.27;;;10.65;;
80584;SDS011;70137;56.482;9.154;2023-06-26T03:28:25;14.07;;;9.40;;
80584;SDS011;70137;56.482;9.154;2023-06-26T03:30:51;13.77;;;10.05;;
80584;SDS011;70137;56.482;9.154;2023-06-26T03:33:16;13.73;;;9.95;;
80584;SDS011;70137;56.482;9.154;2023-06-26T03:35:42;12.35;;;9.20;;
80584;SDS011;70137;56.482;9.154;2023-06-26T03:38:07;15.20;;;10.32;;
80584;SDS011;70137;56.482;9.154;2023-06-26T03:40:32;13.32;;;9.02;;
80584;SDS011;70137;56.482;9.154;2023-06-26T03:42:58;14.13;;;10.35;;
80584;SDS011;70137;56.482;9.154;2023-06-26T03:45:23;14.68;;;10.30;;
80584;SDS011;70137;56.482;9.154;2023-06-26T03:47:48;15.77;;;9.98;;
80584;SDS011;70137;56.482;9.154;2023-06-26T03:50:15;15.95;;;10.48;;
80584;SDS011;70137;56.482;9.154;2023-06-26T03:52:40;14.23;;;10.13;;
80584;SDS011;70137;56.482;9.154;2023-06-26T03:55:06;16.70;;;9.95;;
80584;SDS011;70137;56.482;9.154;2023-06-26T03:57:31;16.38;;;10.95;;
80584;SDS011;70137;56.482;9.154;2023-06-26T03:59:56;14.65;;;10.70;;
80584;SDS011;70137;56.482;9.154;2023-06-26T04:02:22;17.50;;;11.15;;
80584;SDS011;70137;56.482;9.154;2023-06-26T04:04:48;16.70;;;10.52;;
80584;SDS011;70137;56.482;9.154;2023-06-26T04:07:13;16.27;;;10.20;;
80584;SDS011;70137;56.482;9.154;2023-06-26T04:09:38;20.30;;;10.00;;
80584;SDS011;70137;56.482;9.154;2023-06-26T04:12:04;17.55;;;10.60;;
80584;SDS011;70137;56.482;9.154;2023-06-26T04:14:29;14.27;;;9.88;;
80584;SDS011;70137;56.482;9.154;2023-06-26T04:16:54;16.73;;;10.85;;
80584;SDS011;70137;56.482;9.154;2023-06-26T04:19:20;16.00;;;11.10;;
80584;SDS011;70137;56.482;9.154;2023-06-26T04:21:45;18.63;;;11.05;;
80584;SDS011;70137;56.482;9.154;2023-06-26T04:24:11;15.20;;;10.95;;
80584;SDS011;70137;56.482;9.154;2023-06-26T04:26:36;16.80;;;12.27;;
80584;SDS011;70137;56.482;9.154;2023-06-26T04:29:02;15.75;;;10.32;;
80584;SDS011;70137;56.482;9.154;2023-06-26T04:31:28;54.33;;;36.55;;
80584;SDS011;70137;56.482;9.154;2023-06-26T04:33:53;19.60;;;11.43;;
80584;SDS011;70137;56.482;9.154;2023-06-26T04:36:20;19.73;;;12.15;;
80584;SDS011;70137;56.482;9.154;2023-06-26T04:38:45;16.88;;;10.95;;
80584;SDS011;70137;56.482;9.154;2023-06-26T04:41:13;16.35;;;11.55;;
80584;SDS011;70137;56.482;9.154;2023-06-26T04:43:38;15.32;;;11.48;;
80584;SDS011;70137;56.482;9.154;2023-06-26T04:46:04;14.68;;;10.15;;
80584;SDS011;70137;56.482;9.154;2023-06-26T04:48:31;14.77;;;10.95;;
80584;SDS011;70137;56.482;9.154;2023-06-26T04:50:56;16.98;;;11.68;;
80584;SDS011;70137;56.482;9.154;2023-06-26T04:53:24;16.48;;;10.35;;
80584;SDS011;70137;56.482;9.154;2023-06-26T04:55:50;14.48;;;10.82;;
80584;SDS011;70137;56.482;9.154;2023-06-26T04:58:16;12.38;;;8.93;;
80584;SDS011;70137;56.482;9.154;2023-06-26T05:00:41;13.85;;;9.70;;
80584;SDS011;70137;56.482;9.154;2023-06-26T05:03:07;12.75;;;9.55;;
80584;SDS011;70137;56.482;9.154;2023-06-26T05:05:37;15.57;;;9.55;;
80584;SDS011;70137;56.482;9.154;2023-06-26T05:10:46;13.13;;;8.52;;
80584;SDS011;70137;56.482;9.154;2023-06-26T05:13:11;12.05;;;8.38;;
80584;SDS011;70137;56.482;9.154;2023-06-26T05:15:39;12.77;;;8.77;;
80584;SDS011;70137;56.482;9.154;2023-06-26T05:18:05;11.35;;;7.72;;
80584;SDS011;70137;56.482;9.154;2023-06-26T05:20:31;11.27;;;8.30;;
80584;SDS011;70137;56.482;9.154;2023-06-26T05:22:56;10.45;;;7.82;;
80584;SDS011;70137;56.482;9.154;2023-06-26T05:25:23;11.20;;;7.70;;
80584;SDS011;70137;56.482;9.154;2023-06-26T05:27:49;11.50;;;7.80;;
80584;SDS011;70137;56.482;9.154;2023-06-26T05:30:15;12.40;;;7.90;;
80584;SDS011;70137;56.482;9.154;2023-06-26T05:32:40;11.82;;;7.82;;
80584;SDS011;70137;56.482;9.154;2023-06-26T05:35:09;10.60;;;7.45;;
80584;SDS011;70137;56.482;9.154;2023-06-26T05:37:35;12.05;;;7.53;;
80584;SDS011;70137;56.482;9.154;2023-06-26T05:40:01;9.82;;;7.05;;
80584;SDS011;70137;56.482;9.154;2023-06-26T05:42:29;9.23;;;6.82;;
80584;SDS011;70137;56.482;9.154;2023-06-26T05:44:55;10.68;;;7.47;;
80584;SDS011;70137;56.482;9.154;2023-06-26T05:47:20;10.90;;;6.90;;
80584;SDS011;70137;56.482;9.154;2023-06-26T05:49:46;11.88;;;7.07;;
80584;SDS011;70137;56.482;9.154;2023-06-26T05:52:11;7.90;;;6.40;;
80584;SDS011;70137;56.482;9.154;2023-06-26T05:54:37;11.45;;;6.40;;
80584;SDS011;70137;56.482;9.154;2023-06-26T05:57:02;10.20;;;6.00;;
80584;SDS011;70137;56.482;9.154;2023-06-26T05:59:28;6.20;;;5.28;;
80584;SDS011;70137;56.482;9.154;2023-06-26T06:01:56;10.43;;;5.60;;
80584;SDS011;70137;56.482;9.154;2023-06-26T06:04:22;9.52;;;5.78;;
80584;SDS011;70137;56.482;9.154;2023-06-26T06:06:47;9.45;;;5.82;;
80584;SDS011;70137;56.482;9.154;2023-06-26T06:09:12;9.93;;;5.88;;
80584;SDS011;70137;56.482;9.154;2023-06-26T06:11:38;7.47;;;5.50;;
80584;SDS011;70137;56.482;9.154;2023-06-26T06:14:03;7.07;;;5.00;;
80584;SDS011;70137;56.482;9.154;2023-06-26T06:16:29;8.93;;;4.78;;
80584;SDS011;70137;56.482;9.154;2023-06-26T06:18:55;8.60;;;5.78;;
80584;SDS011;70137;56.482;9.154;2023-06-26T06:21:20;9.30;;;5.60;;
80584;SDS011;70137;56.482;9.154;2023-06-26T06:23:46;5.97;;;5.13;;
80584;SDS011;70137;56.482;9.154;2023-06-26T06:26:11;9.20;;;5.47;;
80584;SDS011;70137;56.482;9.154;2023-06-26T06:28:37;9.38;;;5.28;;
80584;SDS011;70137;56.482;9.154;2023-06-26T06:31:03;5.22;;;4.72;;
80584;SDS011;70137;56.482;9.154;2023-06-26T06:33:28;7.70;;;5.18;;
80584;SDS011;70137;56.482;9.154;2023-06-26T06:35:54;6.65;;;5.03;;
80584;SDS011;70137;56.482;9.154;2023-06-26T06:38:19;6.35;;;4.72;;
80584;SDS011;70137;56.482;9.154;2023-06-26T06:40:44;9.73;;;4.65;;
80584;SDS011;70137;56.482;9.154;2023-06-26T06:43:10;7.38;;;4.85;;
80584;SDS011;70137;56.482;9.154;2023-06-26T06:45:35;6.75;;;4.95;;
80584;SDS011;70137;56.482;9.154;2023-06-26T06:48:02;5.85;;;4.57;;
80584;SDS011;70137;56.482;9.154;2023-06-26T06:50:27;7.32;;;5.25;;
80584;SDS011;70137;56.482;9.154;2023-06-26T06:52:53;6.78;;;5.22;;
80584;SDS011;70137;56.482;9.154;2023-06-26T06:55:18;7.22;;;4.70;;
80584;SDS011;70137;56.482;9.154;2023-06-26T06:57:44;6.22;;;4.25;;
80584;SDS011;70137;56.482;9.154;2023-06-26T07:00:10;7.50;;;5.05;;
80584;SDS011;70137;56.482;9.154;2023-06-26T07:02:37;8.18;;;5.32;;
80584;SDS011;70137;56.482;9.154;2023-06-26T07:05:03;5.53;;;4.47;;
80584;SDS011;70137;56.482;9.154;2023-06-26T07:07:30;6.28;;;5.13;;
80584;SDS011;70137;56.482;9.154;2023-06-26T07:10:00;8.35;;;4.82;;
80584;SDS011;70137;56.482;9.154;2023-06-26T07:12:27;7.03;;;4.93;;
80584;SDS011;70137;56.482;9.154;2023-06-26T07:14:53;6.22;;;4.70;;
80584;SDS011;70137;56.482;9.154;2023-06-26T07:17:19;7.45;;;5.00;;
80584;SDS011;70137;56.482;9.154;2023-06-26T07:19:46;5.97;;;4.43;;
80584;SDS011;70137;56.482;9.154;2023-06-26T07:22:11;7.53;;;5.20;;
80584;SDS011;70137;56.482;9.154;2023-06-26T07:24:37;6.60;;;4.68;;
80584;SDS011;70137;56.482;9.154;2023-06-26T07:27:02;5.22;;;4.72;;
80584;SDS011;70137;56.482;9.154;2023-06-26T07:29:28;6.95;;;4.60;;
80584;SDS011;70137;56.482;9.154;2023-06-26T07:31:53;5.82;;;4.60;;
80584;SDS011;70137;56.482;9.154;2023-06-26T07:34:18;7.10;;;4.85;;
80584;SDS011;70137;56.482;9.154;2023-06-26T07:36:44;5.25;;;4.70;;
80584;SDS011;70137;56.482;9.154;2023-06-26T07:39:09;6.45;;;4.95;;
80584;SDS011;70137;56.482;9.154;2023-06-26T07:41:36;6.10;;;4.80;;
80584;SDS011;70137;56.482;9.154;2023-06-26T07:44:01;5.30;;;4.80;;
80584;SDS011;70137;56.482;9.154;2023-06-26T07:46:27;5.25;;;4.50;;
80584;SDS011;70137;56.482;9.154;2023-06-26T07:48:52;5.57;;;5.00;;
80584;SDS011;70137;56.482;9.154;2023-06-26T07:51:18;5.78;;;4.70;;
80584;SDS011;70137;56.482;9.154;2023-06-26T07:53:43;7.97;;;4.60;;
80584;SDS011;70137;56.482;9.154;2023-06-26T07:56:11;6.60;;;4.72;;
80584;SDS011;70137;56.482;9.154;2023-06-26T07:58:37;5.90;;;4.85;;
80584;SDS011;70137;56.482;9.154;2023-06-26T08:01:02;7.30;;;5.00;;
80584;SDS011;70137;56.482;9.154;2023-06-26T08:03:27;6.57;;;4.88;;
80584;SDS011;70137;56.482;9.154;2023-06-26T08:05:53;8.80;;;5.05;;
80584;SDS011;70137;56.482;9.154;2023-06-26T08:08:18;6.50;;;5.13;;
80584;SDS011;70137;56.482;9.154;2023-06-26T08:10:43;5.60;;;4.85;;
80584;SDS011;70137;56.482;9.154;2023-06-26T08:13:09;7.45;;;5.18;;
80584;SDS011;70137;56.482;9.154;2023-06-26T08:15:34;5.43;;;4.93;;
80584;SDS011;70137;56.482;9.154;2023-06-26T08:18:00;5.88;;;5.28;;
80584;SDS011;70137;56.482;9.154;2023-06-26T08:20:25;6.40;;;5.30;;
80584;SDS011;70137;56.482;9.154;2023-06-26T08:22:50;5.38;;;4.68;;
80584;SDS011;70137;56.482;9.154;2023-06-26T08:25:17;5.57;;;4.65;;
80584;SDS011;70137;56.482;9.154;2023-06-26T08:27:43;10.95;;;5.63;;
80584;SDS011;70137;56.482;9.154;2023-06-26T08:30:08;9.90;;;5.07;;
80584;SDS011;70137;56.482;9.154;2023-06-26T08:32:34;7.03;;;5.45;;
80584;SDS011;70137;56.482;9.154;2023-06-26T08:34:59;9.75;;;6.53;;
80584;SDS011;70137;56.482;9.154;2023-06-26T08:37:24;14.50;;;7.40;;
80584;SDS011;70137;56.482;9.154;2023-06-26T08:39:50;9.52;;;6.70;;
80584;SDS011;70137;56.482;9.154;2023-06-26T08:42:15;16.13;;;5.18;;
80584;SDS011;70137;56.482;9.154;2023-06-26T08:44:40;16.33;;;4.90;;
80584;SDS011;70137;56.482;9.154;2023-06-26T08:47:06;11.55;;;3.60;;
80584;SDS011;70137;56.482;9.154;2023-06-26T08:49:34;7.70;;;3.60;;
80584;SDS011;70137;56.482;9.154;2023-06-26T08:52:19;7.03;;;3.50;;
80584;SDS011;70137;56.482;9.154;2023-06-26T08:54:49;7.63;;;4.00;;
80584;SDS011;70137;56.482;9.154;2023-06-26T08:57:19;10.55;;;4.30;;
80584;SDS011;70137;56.482;9.154;2023-06-26T08:59:47;10.30;;;3.80;;
80584;SDS011;70137;56.482;9.154;2023-06-26T09:02:13;5.50;;;3.53;;
80584;SDS011;70137;56.482;9.154;2023-06-26T09:04:38;6.80;;;3.60;;
80584;SDS011;70137;56.482;9.154;2023-06-26T09:07:05;7.30;;;3.67;;
80584;SDS011;70137;56.482;9.154;2023-06-26T09:09:30;5.80;;;3.83;;
80584;SDS011;70137;56.482;9.154;2023-06-26T09:11:56;6.68;;;4.20;;
80584;SDS011;70137;56.482;9.154;2023-06-26T09:14:21;8.45;;;3.97;;
80584;SDS011;70137;56.482;9.154;2023-06-26T09:16:47;6.88;;;4.07;;
80584;SDS011;70137;56.482;9.154;2023-06-26T09:19:12;9.55;;;3.97;;
80584;SDS011;70137;56.482;9.154;2023-06-26T09:21:39;12.15;;;4.13;;
80584;SDS011;70137;56.482;9.154;2023-06-26T09:24:07;7.32;;;3.88;;
80584;SDS011;70137;56.482;9.154;2023-06-26T09:26:37;9.07;;;4.57;;
80584;SDS011;70137;56.482;9.154;2023-06-26T09:29:04;7.85;;;4.50;;
80584;SDS011;70137;56.482;9.154;2023-06-26T09:31:30;5.20;;;3.85;;
80584;SDS011;70137;56.482;9.154;2023-06-26T09:33:59;8.45;;;4.35;;
80584;SDS011;70137;56.482;9.154;2023-06-26T09:36:26;11.43;;;4.13;;
80584;SDS011;70137;56.482;9.154;2023-06-26T09:38:53;5.88;;;4.03;;
80584;SDS011;70137;56.482;9.154;2023-06-26T09:41:19;5.47;;;3.97;;
80584;SDS011;70137;56.482;9.154;2023-06-26T09:43:46;8.02;;;3.97;;
80584;SDS011;70137;56.482;9.154;2023-06-26T09:46:16;7.63;;;4.47;;
80584;SDS011;70137;56.482;9.154;2023-06-26T09:48:42;10.32;;;5.07;;
80584;SDS011;70137;56.482;9.154;2023-06-26T09:51:08;10.50;;;4.80;;
80584;SDS011;70137;56.482;9.154;2023-06-26T09:53:34;9.35;;;4.93;;
80584;SDS011;70137;56.482;9.154;2023-06-26T09:56:04;7.30;;;4.55;;
80584;SDS011;70137;56.482;9.154;2023-06-26T09:58:39;9.13;;;4.80;;
80584;SDS011;70137;56.482;9.154;2023-06-26T10:01:07;13.20;;;5.18;;
80584;SDS011;70137;56.482;9.154;2023-06-26T10:03:34;11.65;;;5.60;;
80584;SDS011;70137;56.482;9.154;2023-06-26T10:05:59;8.85;;;5.40;;
80584;SDS011;70137;56.482;9.154;2023-06-26T10:08:26;11.60;;;4.45;;
80584;SDS011;70137;56.482;9.154;2023-06-26T10:10:51;8.95;;;5.65;;
80584;SDS011;70137;56.482;9.154;2023-06-26T10:13:21;6.47;;;4.68;;
80584;SDS011;70137;56.482;9.154;2023-06-26T10:15:50;8.38;;;5.28;;
80584;SDS011;70137;56.482;9.154;2023-06-26T10:18:16;12.07;;;5.68;;
80584;SDS011;70137;56.482;9.154;2023-06-26T10:20:43;6.80;;;5.05;;
80584;SDS011;70137;56.482;9.154;2023-06-26T10:23:12;10.00;;;5.32;;
80584;SDS011;70137;56.482;9.154;2023-06-26T10:25:39;6.32;;;4.85;;
80584;SDS011;70137;56.482;9.154;2023-06-26T10:28:09;5.97;;;4.78;;
80584;SDS011;70137;56.482;9.154;2023-06-26T10:30:37;8.05;;;4.95;;
80584;SDS011;70137;56.482;9.154;2023-06-26T10:33:05;9.68;;;5.88;;
80584;SDS011;70137;56.482;9.154;2023-06-26T10:35:32;13.30;;;4.88;;
80584;SDS011;70137;56.482;9.154;2023-06-26T10:38:01;7.10;;;5.18;;
80584;SDS011;70137;56.482;9.154;2023-06-26T10:40:43;7.85;;;4.68;;
80584;SDS011;70137;56.482;9.154;2023-06-26T10:43:14;7.50;;;5.13;;
80584;SDS011;70137;56.482;9.154;2023-06-26T10:45:46;8.52;;;5.78;;
80584;SDS011;70137;56.482;9.154;2023-06-26T10:48:17;6.40;;;5.05;;
80584;SDS011;70137;56.482;9.154;2023-06-26T10:50:43;7.65;;;4.93;;
80584;SDS011;70137;56.482;9.154;2023-06-26T10:53:13;9.05;;;4.88;;
80584;SDS011;70137;56.482;9.154;2023-06-26T10:55:56;4.55;;;3.88;;
80584;SDS011;70137;56.482;9.154;2023-06-26T11:06:29;10.65;;;5.75;;
80584;SDS011;70137;56.482;9.154;2023-06-26T11:09:00;10.30;;;5.57;;
80584;SDS011;70137;56.482;9.154;2023-06-26T11:12:08;7.72;;;5.65;;
80584;SDS011;70137;56.482;9.154;2023-06-26T11:14:23;7.70;;;5.40;;
80584;SDS011;70137;56.482;9.154;2023-06-26T11:16:50;5.90;;;4.85;;
80584;SDS011;70137;56.482;9.154;2023-06-26T11:19:19;8.43;;;5.40;;
80584;SDS011;70137;56.482;9.154;2023-06-26T11:21:45;7.57;;;5.47;;
80584;SDS011;70137;56.482;9.154;2023-06-26T11:24:11;8.20;;;6.00;;
80584;SDS011;70137;56.482;9.154;2023-06-26T11:26:41;7.32;;;5.72;;
80584;SDS011;70137;56.482;9.154;2023-06-26T11:29:08;9.25;;;6.38;;
80584;SDS011;70137;56.482;9.154;2023-06-26T11:31:34;8.88;;;6.88;;
80584;SDS011;70137;56.482;9.154;2023-06-26T11:34:03;9.88;;;6.65;;
80584;SDS011;70137;56.482;9.154;2023-06-26T11:36:30;7.22;;;5.60;;
80584;SDS011;70137;56.482;9.154;2023-06-26T11:38:56;6.63;;;5.28;;
80584;SDS011;70137;56.482;9.154;2023-06-26T11:41:26;11.50;;;6.35;;
80584;SDS011;70137;56.482;9.154;2023-06-26T11:43:53;8.52;;;5.82;;
80584;SDS011;70137;56.482;9.154;2023-06-26T11:46:20;7.40;;;4.85;;
80584;SDS011;70137;56.482;9.154;2023-06-26T11:48:46;6.43;;;4.35;;
80584;SDS011;70137;56.482;9.154;2023-06-26T11:51:15;9.48;;;4.57;;
80584;SDS011;70137;56.482;9.154;2023-06-26T11:53:41;9.00;;;5.70;;
80584;SDS011;70137;56.482;9.154;2023-06-26T11:56:11;7.40;;;5.18;;
80584;SDS011;70137;56.482;9.154;2023-06-26T12:01:22;10.80;;;7.13;;
80584;SDS011;70137;56.482;9.154;2023-06-26T12:03:48;9.95;;;7.30;;
80584;SDS011;70137;56.482;9.154;2023-06-26T12:06:14;7.03;;;5.32;;
80584;SDS011;70137;56.482;9.154;2023-06-26T12:08:40;8.75;;;5.82;;
80584;SDS011;70137;56.482;9.154;2023-06-26T12:11:06;8.13;;;5.55;;
80584;SDS011;70137;56.482;9.154;2023-06-26T12:13:32;7.65;;;5.40;;
80584;SDS011;70137;56.482;9.154;2023-06-26T12:15:58;9.88;;;6.25;;
80584;SDS011;70137;56.482;9.154;2023-06-26T12:18:24;6.68;;;5.88;;
80584;SDS011;70137;56.482;9.154;2023-06-26T12:20:50;7.53;;;5.80;;
80584;SDS011;70137;56.482;9.154;2023-06-26T12:23:18;6.10;;;5.18;;
80584;SDS011;70137;56.482;9.154;2023-06-26T12:25:43;7.90;;;5.95;;
80584;SDS011;70137;56.482;9.154;2023-06-26T12:28:16;9.43;;;6.07;;
80584;SDS011;70137;56.482;9.154;2023-06-26T12:30:45;8.02;;;5.32;;
80584;SDS011;70137;56.482;9.154;2023-06-26T12:33:14;7.88;;;5.35;;
80584;SDS011;70137;56.482;9.154;2023-06-26T12:35:41;10.20;;;5.25;;
80584;SDS011;70137;56.482;9.154;2023-06-26T12:38:08;8.50;;;5.05;;
80584;SDS011;70137;56.482;9.154;2023-06-26T12:40:35;11.65;;;5.20;;
80584;SDS011;70137;56.482;9.154;2023-06-26T12:45:47;13.13;;;5.07;;
80584;SDS011;70137;56.482;9.154;2023-06-26T12:48:12;19.02;;;5.22;;
80584;SDS011;70137;56.482;9.154;2023-06-26T12:50:43;14.10;;;3.17;;
80584;SDS011;70137;56.482;9.154;2023-06-26T12:53:09;8.55;;;3.10;;
80584;SDS011;70137;56.482;9.154;2023-06-26T12:55:35;7.20;;;2.58;;
80584;SDS011;70137;56.482;9.154;2023-06-26T12:58:01;15.40;;;3.00;;
80584;SDS011;70137;56.482;9.154;2023-06-26T13:00:26;8.35;;;2.63;;
80584;SDS011;70137;56.482;9.154;2023-06-26T13:02:51;8.77;;;2.30;;
80584;SDS011;70137;56.482;9.154;2023-06-26T13:05:17;9.55;;;2.30;;
80584;SDS011;70137;56.482;9.154;2023-06-26T13:07:42;8.40;;;2.45;;
80584;SDS011;70137;56.482;9.154;2023-06-26T13:10:07;7.13;;;2.30;;
80584;SDS011;70137;56.482;9.154;2023-06-26T13:12:33;11.35;;;2.53;;
80584;SDS011;70137;56.482;9.154;2023-06-26T13:14:59;7.07;;;2.08;;
80584;SDS011;70137;56.482;9.154;2023-06-26T13:17:24;7.35;;;2.30;;
80584;SDS011;70137;56.482;9.154;2023-06-26T13:19:49;9.02;;;2.42;;
80584;SDS011;70137;56.482;9.154;2023-06-26T13:22:15;8.82;;;2.60;;
80584;SDS011;70137;56.482;9.154;2023-06-26T13:24:40;8.23;;;2.50;;
80584;SDS011;70137;56.482;9.154;2023-06-26T13:27:06;5.28;;;2.22;;
80584;SDS011;70137;56.482;9.154;2023-06-26T13:29:31;11.20;;;1.80;;
80584;SDS011;70137;56.482;9.154;2023-06-26T13:31:57;6.72;;;2.30;;
80584;SDS011;70137;56.482;9.154;2023-06-26T13:34:23;4.80;;;1.73;;
80584;SDS011;70137;56.482;9.154;2023-06-26T13:36:49;6.53;;;2.10;;
80584;SDS011;70137;56.482;9.154;2023-06-26T13:39:15;6.95;;;1.85;;
80584;SDS011;70137;56.482;9.154;2023-06-26T13:41:40;7.72;;;2.33;;
80584;SDS011;70137;56.482;9.154;2023-06-26T13:44:05;5.88;;;2.15;;
80584;SDS011;70137;56.482;9.154;2023-06-26T13:46:31;9.40;;;2.17;;
80584;SDS011;70137;56.482;9.154;2023-06-26T13:48:56;9.68;;;2.17;;
80584;SDS011;70137;56.482;9.154;2023-06-26T13:51:21;7.90;;;2.40;;
80584;SDS011;70137;56.482;9.154;2023-06-26T13:53:47;7.18;;;2.28;;
80584;SDS011;70137;56.482;9.154;2023-06-26T13:56:12;11.15;;;2.72;;
80584;SDS011;70137;56.482;9.154;2023-06-26T13:58:37;8.63;;;2.10;;
80584;SDS011;70137;56.482;9.154;2023-06-26T14:01:03;6.35;;;1.83;;
80584;SDS011;70137;56.482;9.154;2023-06-26T14:03:29;9.23;;;2.28;;
80584;SDS011;70137;56.482;9.154;2023-06-26T14:05:54;4.93;;;1.70;;
80584;SDS011;70137;56.482;9.154;2023-06-26T14:08:19;7.05;;;2.10;;
80584;SDS011;70137;56.482;9.154;2023-06-26T14:10:45;10.07;;;2.05;;
80584;SDS011;70137;56.482;9.154;2023-06-26T14:13:10;7.68;;;1.95;;
80584;SDS011;70137;56.482;9.154;2023-06-26T14:15:39;8.38;;;2.13;;
80584;SDS011;70137;56.482;9.154;2023-06-26T14:18:05;7.82;;;2.00;;
80584;SDS011;70137;56.482;9.154;2023-06-26T14:20:30;6.63;;;1.88;;
80584;SDS011;70137;56.482;9.154;2023-06-26T14:22:57;6.63;;;1.88;;
80584;SDS011;70137;56.482;9.154;2023-06-26T14:25:23;5.25;;;1.50;;
80584;SDS011;70137;56.482;9.154;2023-06-26T14:27:48;5.25;;;1.20;;
80584;SDS011;70137;56.482;9.154;2023-06-26T14:30:13;4.30;;;1.27;;
80584;SDS011;70137;56.482;9.154;2023-06-26T14:32:39;3.28;;;1.00;;
80584;SDS011;70137;56.482;9.154;2023-06-26T14:35:04;2.30;;;1.00;;
80584;SDS011;70137;56.482;9.154;2023-06-26T14:37:30;3.22;;;1.33;;
80584;SDS011;70137;56.482;9.154;2023-06-26T14:39:56;3.92;;;1.00;;
80584;SDS011;70137;56.482;9.154;2023-06-26T14:42:22;3.58;;;0.88;;
80584;SDS011;70137;56.482;9.154;2023-06-26T14:44:47;5.40;;;0.90;;
80584;SDS011;70137;56.482;9.154;2023-06-26T14:47:15;4.60;;;1.10;;
80584;SDS011;70137;56.482;9.154;2023-06-26T14:49:40;3.13;;;0.98;;
80584;SDS011;70137;56.482;9.154;2023-06-26T14:52:06;2.63;;;0.98;;
80584;SDS011;70137;56.482;9.154;2023-06-26T14:54:31;2.38;;;1.25;;